Аэропорт: Адлер. Сочи

ICAO: URSS

METAR:
2024-04-22 21:30:00
URSS 222130Z 04003MPS 9999 NSC 11/10 Q1021 R02/010070 R06/////// NOSIG RMK R06/07002MPS QFE765
TAF:
2024-04-22 19:56:00
TAF URSS 221956Z 2221/2321 05003G08MPS 9999 SCT030 
  TEMPO 2221/2305 2500 BR BKN006 
  FM230500 17005G10MPS 9999 SCT010 
  BECMG 2310/2312 23004G09MPS FEW030 
  BECMG 2317/2318 05003G08MPS